Time;durP1;ratioP1;P1;durP2;ratioP2;P2;SDS_P1;SDS_P2;PMS_P1;PMS_P2;Temp;Humidity;BMP_temperature;BMP_pressure;BME280_temperature;BME280_humidity;BME280_pressure;Samples;Min_cycle;Max_cycle;Signal;HPM_P1;HPM_P2
2022/09/26 00:03:52;;;;;;;9.77;3.88;;;;;;;10.03;100.00;100076.34;8357749;28;20095;-48
2022/09/26 00:07:52;;;;;;;8.23;3.95;;;;;;;10.38;100.00;100072.09;8357911;28;20037;-48
2022/09/26 00:11:53;;;;;;;9.45;3.58;;;;;;;10.38;100.00;100067.53;8381282;28;20085;-48
2022/09/26 00:15:55;;;;;;;8.95;3.85;;;;;;;10.20;100.00;100063.94;8396182;28;20028;-49
2022/09/26 00:19:55;;;;;;;11.43;4.20;;;;;;;9.95;100.00;100048.38;8385757;28;20048;-48
2022/09/26 00:23:58;;;;;;;11.55;4.00;;;;;;;9.93;100.00;100044.97;8357604;28;20127;-48
2022/09/26 00:27:58;;;;;;;10.95;4.00;;;;;;;9.97;100.00;100040.97;8382565;28;20120;-52
2022/09/26 00:31:59;;;;;;;9.32;3.97;;;;;;;9.96;100.00;100023.94;8359758;28;20553;-48
2022/09/26 00:35:59;;;;;;;9.82;4.38;;;;;;;10.06;100.00;100028.44;8357344;28;20032;-51
2022/09/26 00:40:00;;;;;;;7.03;4.38;;;;;;;10.11;100.00;100016.22;8369185;28;20409;-48
2022/09/26 00:44:01;;;;;;;9.93;4.65;;;;;;;10.10;100.00;99998.31;8388969;28;20577;-51
2022/09/26 00:48:05;;;;;;;6.28;4.35;;;;;;;10.11;100.00;99994.59;8377270;28;20037;-48
2022/09/26 00:52:11;;;;;;;8.43;4.20;;;;;;;10.22;100.00;99986.31;8380956;28;20587;-48
2022/09/26 00:56:18;;;;;;;14.27;4.47;;;;;;;10.12;100.00;99984.66;8357785;28;20051;-48
2022/09/26 01:00:19;;;;;;;11.32;4.75;;;;;;;10.21;100.00;99990.00;8364122;28;20040;-48
2022/09/26 01:04:20;;;;;;;7.47;3.85;;;;;;;10.17;100.00;99983.19;8373234;28;20505;-51
2022/09/26 01:08:27;;;;;;;12.48;4.38;;;;;;;10.06;100.00;99986.06;8365593;28;20425;-49
2022/09/26 01:12:27;;;;;;;8.13;4.28;;;;;;;9.94;100.00;99989.97;8375176;28;20033;-48
2022/09/26 01:16:49;;;;;;;9.32;4.35;;;;;;;9.80;100.00;99982.38;8363426;28;20029;-48
2022/09/26 01:21:02;;;;;;;8.02;4.65;;;;;;;9.87;100.00;99975.38;8362394;28;20032;-48
2022/09/26 01:25:42;;;;;;;9.10;5.13;;;;;;;10.05;100.00;99962.75;8388215;28;20079;-48
2022/09/26 01:30:07;;;;;;;10.10;5.28;;;;;;;10.14;100.00;99952.94;8376197;28;20037;-48
2022/09/26 01:34:21;;;;;;;9.35;5.05;;;;;;;10.23;100.00;99944.78;8368238;28;20111;-49
2022/09/26 01:43:18;;;;;;;11.98;4.85;;;;;;;10.49;100.00;99940.31;8291903;28;20481;-48
2022/09/26 01:47:28;;;;;;;11.77;5.47;;;;;;;10.53;100.00;99930.91;8287323;28;20111;-47
2022/09/26 01:51:37;;;;;;;8.05;4.70;;;;;;;10.44;100.00;99930.97;8275445;28;20034;-47
2022/09/26 01:55:44;;;;;;;8.52;4.65;;;;;;;10.44;100.00;99930.97;8286884;28;20077;-46
2022/09/26 01:59:51;;;;;;;8.00;4.80;;;;;;;10.30;100.00;99917.97;8286501;28;20045;-49
2022/09/26 02:03:57;;;;;;;12.15;5.47;;;;;;;10.33;100.00;99913.13;8286003;28;20128;-48
2022/09/26 02:12:21;;;;;;;8.45;6.07;;;;;;;10.55;100.00;99912.66;8318753;28;20402;-51
2022/09/26 02:16:30;;;;;;;11.38;6.03;;;;;;;10.55;100.00;99901.84;8288232;28;20205;-50
2022/09/26 02:20:36;;;;;;;8.35;5.30;;;;;;;10.61;100.00;99892.28;8282154;28;20061;-53
2022/09/26 02:24:37;;;;;;;11.52;5.97;;;;;;;10.61;100.00;99886.88;8285108;28;20045;-50
2022/09/26 02:28:37;;;;;;;7.75;5.70;;;;;;;10.57;100.00;99883.63;8293013;28;20034;-50
2022/09/26 02:32:38;;;;;;;10.30;6.18;;;;;;;10.47;100.00;99877.47;8317657;28;20045;-50
2022/09/26 02:36:39;;;;;;;9.70;6.40;;;;;;;10.52;100.00;99864.31;8317969;28;20048;-52
2022/09/26 02:41:05;;;;;;;15.13;6.47;;;;;;;10.59;100.00;99859.16;8300790;28;20042;-50
2022/09/26 02:54:13;;;;;;;9.90;6.72;;;;;;;10.64;100.00;99827.13;8325978;27;20443;-49
2022/09/26 02:58:53;;;;;;;9.35;6.90;;;;;;;10.64;100.00;99825.25;8314899;28;20045;-47
2022/09/26 03:03:25;;;;;;;9.43;6.70;;;;;;;10.67;100.00;99824.91;8352486;28;20056;-47
2022/09/26 03:07:34;;;;;;;10.65;7.13;;;;;;;10.70;100.00;99823.78;8351700;28;20053;-48
2022/09/26 03:11:34;;;;;;;15.48;7.60;;;;;;;10.82;100.00;99812.53;8351161;28;20052;-49
2022/09/26 03:15:37;;;;;;;16.23;8.55;;;;;;;10.95;100.00;99802.13;8352437;28;20033;-50
2022/09/26 03:19:46;;;;;;;16.23;9.68;;;;;;;11.20;100.00;99790.41;8351691;28;20557;-47
2022/09/26 03:23:46;;;;;;;20.55;11.63;;;;;;;11.34;100.00;99781.69;8351494;28;20172;-49
2022/09/26 03:27:47;;;;;;;23.48;11.70;;;;;;;11.47;100.00;99776.66;8351424;28;20471;-49
2022/09/26 03:31:49;;;;;;;18.23;11.38;;;;;;;11.51;100.00;99767.22;8349707;28;20036;-47
2022/09/26 03:35:49;;;;;;;15.98;10.55;;;;;;;11.53;100.00;99762.47;8351439;28;20107;-48
2022/09/26 03:39:49;;;;;;;20.23;11.38;;;;;;;11.55;100.00;99757.72;8351471;28;20033;-51
2022/09/26 03:43:50;;;;;;;28.05;12.85;;;;;;;11.55;100.00;99746.91;8350854;28;20040;-48
2022/09/26 03:47:56;;;;;;;28.17;12.82;;;;;;;11.62;100.00;99742.56;8351187;28;20045;-48
2022/09/26 03:51:56;;;;;;;22.75;11.30;;;;;;;11.60;100.00;99733.72;8350304;28;20041;-48
2022/09/26 03:56:06;;;;;;;23.83;11.48;;;;;;;11.52;100.00;99720.16;8349939;28;20042;-49
2022/09/26 04:00:07;;;;;;;28.92;12.98;;;;;;;11.51;100.00;99713.06;8351155;28;20132;-50
2022/09/26 04:04:07;;;;;;;31.10;13.05;;;;;;;11.55;100.00;99703.59;8329843;28;20373;-49
2022/09/26 04:08:08;;;;;;;24.35;12.02;;;;;;;11.60;100.00;99695.84;8316770;28;20056;-49
2022/09/26 04:12:08;;;;;;;27.88;11.98;;;;;;;11.65;100.00;99693.47;8322716;28;20088;-50
2022/09/26 04:16:10;;;;;;;16.48;10.10;;;;;;;11.70;100.00;99691.13;8295230;28;20514;-49
2022/09/26 04:20:10;;;;;;;15.88;10.10;;;;;;;11.67;100.00;99683.34;8286892;28;20034;-52
2022/09/26 04:24:14;;;;;;;17.73;10.02;;;;;;;11.65;100.00;99669.13;8284561;28;20124;-49
2022/09/26 04:28:15;;;;;;;23.55;11.55;;;;;;;11.66;100.00;99667.28;8287182;28;20412;-49
2022/09/26 04:32:16;;;;;;;19.60;10.25;;;;;;;11.62;100.00;99650.50;8284941;28;20030;-49
2022/09/26 04:36:17;;;;;;;15.48;10.10;;;;;;;11.66;100.00;99662.72;8322547;28;20049;-49
2022/09/26 04:40:17;;;;;;;14.23;8.60;;;;;;;11.60;100.00;99646.25;8324226;28;20030;-52
2022/09/26 04:44:17;;;;;;;15.40;8.45;;;;;;;11.59;100.00;99639.97;8324135;28;20083;-48
2022/09/26 04:48:18;;;;;;;12.95;7.97;;;;;;;11.60;100.00;99638.97;8314755;28;20037;-49
2022/09/26 04:52:19;;;;;;;13.38;7.72;;;;;;;11.57;100.00;99633.91;8322976;28;20475;-52
2022/09/26 04:56:21;;;;;;;14.93;7.60;;;;;;;11.57;100.00;99635.75;8316959;28;20046;-49
2022/09/26 05:00:22;;;;;;;10.15;7.20;;;;;;;11.54;100.00;99626.13;8321665;28;20036;-50
2022/09/26 05:04:22;;;;;;;11.43;6.90;;;;;;;11.50;100.00;99615.81;8309698;28;20037;-49
2022/09/26 05:08:22;;;;;;;12.32;7.88;;;;;;;11.48;100.00;99613.25;8312328;28;20045;-47
2022/09/26 05:12:23;;;;;;;11.40;7.93;;;;;;;11.45;100.00;99610.91;8298695;28;20491;-47
2022/09/26 05:16:27;;;;;;;10.75;7.13;;;;;;;11.45;100.00;99605.47;8311398;28;20295;-48
2022/09/26 05:20:30;;;;;;;13.23;8.17;;;;;;;11.47;100.00;99598.00;8321342;28;20075;-47
2022/09/26 05:28:54;;;;;;;9.70;6.78;;;;;;;11.50;100.00;99602.25;8321766;28;20045;-48
2022/09/26 05:32:54;;;;;;;10.45;7.53;;;;;;;11.53;100.00;99591.94;8319236;28;20049;-51
2022/09/26 05:36:55;;;;;;;15.70;6.25;;;;;;;11.61;100.00;99583.81;8320458;28;20033;-49
2022/09/26 05:40:55;;;;;;;10.52;5.90;;;;;;;11.65;100.00;99587.91;8318679;28;20034;-48
2022/09/26 05:44:56;;;;;;;8.88;5.93;;;;;;;11.68;100.00;99574.03;8317715;28;20046;-48
2022/09/26 05:48:56;;;;;;;11.93;5.55;;;;;;;11.71;100.00;99562.00;8316957;28;20249;-47
2022/09/26 05:52:58;;;;;;;6.87;4.40;;;;;;;11.71;100.00;99560.16;8319425;28;20045;-48
2022/09/26 05:56:58;;;;;;;6.60;3.55;;;;;;;11.76;100.00;99552.38;8319750;28;20280;-49
2022/09/26 06:01:07;;;;;;;5.53;3.05;;;;;;;11.82;100.00;99546.25;8311776;28;20048;-50
2022/09/26 06:05:08;;;;;;;6.03;3.08;;;;;;;11.92;100.00;99539.81;8283909;28;20069;-50
2022/09/26 06:09:08;;;;;;;7.35;2.60;;;;;;;12.07;100.00;99538.09;8288751;28;20378;-47
2022/09/26 06:13:08;;;;;;;6.93;2.88;;;;;;;12.19;99.29;99528.53;8280337;28;20504;-50
2022/09/26 06:17:09;;;;;;;4.07;2.53;;;;;;;12.33;97.80;99525.09;8282335;28;20049;-49
2022/09/26 06:21:12;;;;;;;6.68;2.25;;;;;;;12.53;95.95;99512.81;8273535;28;20052;-48
2022/09/26 06:25:13;;;;;;;4.45;2.10;;;;;;;12.71;94.33;99505.22;8288208;28;20501;-48
2022/09/26 06:29:13;;;;;;;10.77;2.97;;;;;;;12.89;93.85;99511.22;8287178;28;20407;-50
2022/09/26 06:33:14;;;;;;;4.47;2.38;;;;;;;13.03;92.22;99507.78;8287265;28;20431;-48
2022/09/26 06:37:14;;;;;;;5.88;2.30;;;;;;;13.12;92.16;99507.53;8286509;28;20121;-48
2022/09/26 06:41:15;;;;;;;6.25;2.08;;;;;;;13.25;91.46;99496.06;8288045;28;20389;-51
2022/09/26 06:45:15;;;;;;;5.13;2.08;;;;;;;13.28;91.26;99491.13;8287807;28;20053;-48
2022/09/26 06:49:16;;;;;;;3.47;1.63;;;;;;;13.27;89.54;99494.03;8288080;28;20038;-48
2022/09/26 06:53:16;;;;;;;4.72;1.52;;;;;;;13.25;90.30;99479.78;8287180;28;20129;-48
2022/09/26 06:57:16;;;;;;;3.20;1.60;;;;;;;13.25;90.72;99471.63;8287926;28;20042;-48
2022/09/26 07:01:17;;;;;;;6.13;1.80;;;;;;;13.30;90.82;99466.50;8281423;28;20034;-47
2022/09/26 07:05:19;;;;;;;5.15;1.85;;;;;;;13.37;90.17;99464.75;8286877;28;20418;-46
2022/09/26 07:09:19;;;;;;;3.38;1.50;;;;;;;13.45;89.84;99462.78;8284534;28;20041;-47
2022/09/26 07:13:21;;;;;;;5.70;1.47;;;;;;;13.50;90.76;99456.81;8281810;28;20045;-49
2022/09/26 07:17:21;;;;;;;2.63;1.60;;;;;;;13.52;92.21;99454.75;8287461;28;20770;-50
2022/09/26 07:21:22;;;;;;;4.25;1.95;;;;;;;13.47;95.01;99449.03;8288173;28;20038;-49
2022/09/26 07:25:22;;;;;;;4.85;1.70;;;;;;;13.51;94.82;99447.66;8286294;28;20478;-48
2022/09/26 07:29:22;;;;;;;2.27;1.30;;;;;;;13.51;94.22;99442.22;8267981;28;20113;-51
2022/09/26 07:33:23;;;;;;;8.45;2.03;;;;;;;13.51;96.49;99447.66;8285115;28;20783;-51
2022/09/26 07:37:24;;;;;;;12.50;2.08;;;;;;;13.49;97.07;99446.97;8280725;28;20563;-50
2022/09/26 07:41:29;;;;;;;10.45;2.42;;;;;;;13.40;97.99;99439.94;8276172;28;20039;-49
2022/09/26 07:50:21;;;;;;;6.20;1.00;;;;;;;13.10;93.71;99421.91;8286820;28;20112;-48
2022/09/26 07:54:11;;;;;;;3.47;1.40;;;;;;;12.97;93.22;99418.94;8290966;28;20037;-48
2022/09/26 07:58:11;;;;;;;3.33;1.48;;;;;;;12.95;97.45;99423.69;8301220;28;20099;-47
2022/09/26 08:02:21;;;;;;;2.72;1.35;;;;;;;12.85;97.39;99415.81;8325211;28;20041;-48
2022/09/26 08:06:22;;;;;;;2.70;1.20;;;;;;;12.81;99.08;99410.94;8325063;28;20038;-53
2022/09/26 08:10:23;;;;;;;3.65;1.50;;;;;;;12.72;98.75;99401.19;8323508;28;20099;-49
2022/09/26 08:14:23;;;;;;;5.80;1.42;;;;;;;12.68;100.00;99397.97;8322398;28;20525;-48
2022/09/26 08:18:24;;;;;;;10.13;1.77;;;;;;;12.62;100.00;99398.69;8318063;28;20043;-52
2022/09/26 08:22:24;;;;;;;9.95;2.35;;;;;;;12.58;100.00;99404.66;8290214;28;20354;-50
2022/09/26 08:26:24;;;;;;;3.22;1.08;;;;;;;12.58;99.45;99399.25;8283649;28;20060;-51
2022/09/26 08:30:27;;;;;;;7.35;1.48;;;;;;;12.61;99.59;99396.16;8292657;28;20435;-49
2022/09/26 08:34:28;;;;;;;4.50;1.42;;;;;;;12.65;100.00;99394.78;8290581;28;20368;-50
2022/09/26 08:38:29;;;;;;;1.88;1.30;;;;;;;12.74;100.00;99388.25;8320310;28;20041;-50
2022/09/26 08:42:45;;;;;;;4.93;1.98;;;;;;;12.78;100.00;99393.13;8324415;28;20096;-49
2022/09/26 08:55:46;;;;;;;2.83;1.45;;;;;;;12.99;96.30;99381.63;8380107;27;20879;-49
2022/09/26 08:59:48;;;;;;;2.40;1.40;;;;;;;13.00;96.05;99384.19;8388580;27;20067;-51
2022/09/26 09:03:54;;;;;;;3.47;1.30;;;;;;;13.01;96.05;99376.88;8386790;27;20478;-50
2022/09/26 09:07:57;;;;;;;3.53;1.30;;;;;;;13.04;95.59;99368.38;8376757;27;20493;-51
2022/09/26 09:12:33;;;;;;;3.83;1.33;;;;;;;13.04;95.84;99368.38;8398313;27;20070;-49
2022/09/26 09:16:59;;;;;;;6.15;1.33;;;;;;;13.12;93.58;99355.56;8381822;27;20048;-52
2022/09/26 09:21:11;;;;;;;5.40;1.42;;;;;;;13.23;96.00;99351.53;8377736;27;20123;-50
2022/09/26 09:25:23;;;;;;;2.42;1.20;;;;;;;13.41;94.59;99338.44;8396093;27;20046;-50
2022/09/26 09:30:04;;;;;;;5.35;0.90;;;;;;;13.47;95.11;99335.00;8394513;27;20024;-50
2022/09/26 09:34:11;;;;;;;2.42;1.02;;;;;;;13.50;96.01;99330.03;8393231;27;20094;-50
2022/09/26 09:38:18;;;;;;;3.58;1.38;;;;;;;13.58;94.07;99329.91;8397978;27;20060;-52
2022/09/26 09:42:42;;;;;;;6.40;1.17;;;;;;;13.63;94.70;99323.91;8392113;27;20032;-53
2022/09/26 09:46:42;;;;;;;3.35;1.08;;;;;;;13.57;95.41;99316.53;8410919;27;20063;-51
2022/09/26 09:51:23;;;;;;;2.65;1.40;;;;;;;13.54;97.47;99314.19;8397556;27;20040;-51
2022/09/26 09:55:43;;;;;;;3.22;1.33;;;;;;;13.47;98.17;99300.53;8396572;27;20051;-54
2022/09/26 10:04:36;;;;;;;3.42;1.10;;;;;;;13.16;100.00;99288.19;8388811;27;20391;-53
2022/09/26 10:08:39;;;;;;;3.80;1.23;;;;;;;13.11;100.00;99298.75;8377519;28;20417;-54
2022/09/26 10:12:41;;;;;;;2.05;1.30;;;;;;;13.10;100.00;99286.22;8382200;28;20362;-52
2022/09/26 10:17:11;;;;;;;1.77;1.20;;;;;;;13.17;100.00;99284.44;8380534;28;20035;-55
2022/09/26 10:21:16;;;;;;;3.42;1.45;;;;;;;13.27;100.00;99271.47;8381715;28;20435;-51
2022/09/26 10:25:21;;;;;;;3.58;1.27;;;;;;;13.41;100.00;99273.31;8382234;28;20506;-52
2022/09/26 10:29:33;;;;;;;7.10;1.63;;;;;;;13.57;99.95;99267.66;8381587;28;20049;-53
2022/09/26 10:33:36;;;;;;;3.53;1.17;;;;;;;13.69;97.13;99257.97;8381679;27;20048;-51
2022/09/26 10:37:37;;;;;;;2.47;0.97;;;;;;;13.91;95.01;99243.44;8381145;27;20331;-54
2022/09/26 10:41:40;;;;;;;2.45;1.17;;;;;;;14.14;92.09;99226.91;8385279;27;20288;-51
2022/09/26 10:45:40;;;;;;;5.90;1.10;;;;;;;14.23;91.56;99231.16;8378150;28;20071;-52
2022/09/26 10:50:03;;;;;;;2.53;0.80;;;;;;;14.20;91.54;99210.66;8377896;28;20044;-51
2022/09/26 10:54:10;;;;;;;2.77;1.30;;;;;;;14.24;90.79;99201.09;8379104;28;20124;-55
2022/09/26 10:58:19;;;;;;;1.90;1.00;;;;;;;14.52;89.39;99199.25;8380302;28;20040;-54
2022/09/26 11:02:23;;;;;;;3.28;0.95;;;;;;;14.82;85.31;99194.47;8378335;28;20036;-51
2022/09/26 11:06:43;;;;;;;1.90;1.02;;;;;;;14.88;84.78;99188.22;8380610;28;20037;-54
2022/09/26 11:10:46;;;;;;;5.45;1.08;;;;;;;14.85;85.37;99181.28;8379891;28;20044;-52
2022/09/26 11:14:49;;;;;;;1.75;0.80;;;;;;;14.93;83.93;99166.66;8360384;28;20033;-55
2022/09/26 11:23:21;;;;;;;4.65;1.40;;;;;;;15.02;85.00;99170.91;8383699;27;20403;-53
2022/09/26 11:27:46;;;;;;;4.72;1.10;;;;;;;15.05;82.30;99160.47;8363385;28;20037;-52
2022/09/26 11:31:47;;;;;;;4.88;0.93;;;;;;;15.08;82.60;99146.44;8345982;28;20037;-51
2022/09/26 11:36:28;;;;;;;3.10;1.48;;;;;;;15.00;82.30;99130.28;8349068;28;20060;-54
2022/09/26 11:41:08;;;;;;;1.48;0.75;;;;;;;14.96;82.79;99126.28;8337638;28;20052;-52
2022/09/26 11:45:18;;;;;;;2.78;0.82;;;;;;;14.96;82.12;99114.56;8310851;28;20115;-53
2022/09/26 11:49:35;;;;;;;2.10;1.10;;;;;;;14.96;82.49;99099.06;8327987;28;20041;-52
2022/09/26 11:53:51;;;;;;;2.35;0.70;;;;;;;14.95;80.17;99100.09;8334195;28;20045;-54
2022/09/26 11:58:05;;;;;;;2.50;0.93;;;;;;;14.94;81.52;99090.25;8329441;28;20212;-53
2022/09/26 12:02:41;;;;;;;3.70;0.90;;;;;;;15.03;80.80;99080.88;8332778;28;20128;-54
2022/09/26 12:06:52;;;;;;;1.30;0.60;;;;;;;15.25;80.51;99078.88;8344051;28;20589;-52
2022/09/26 12:15:24;;;;;;;3.90;0.80;;;;;;;15.26;80.09;99073.22;8402087;27;20397;-52
2022/09/26 12:23:51;;;;;;;4.70;0.77;;;;;;;15.32;81.40;99066.94;8400327;27;20874;-50
2022/09/26 12:33:03;;;;;;;2.35;0.90;;;;;;;15.43;80.57;99047.28;8336166;27;20126;-52
2022/09/26 12:37:43;;;;;;;2.65;0.63;;;;;;;15.47;80.05;99042.28;8294897;28;20041;-54
2022/09/26 12:42:06;;;;;;;2.42;1.15;;;;;;;15.26;82.40;99051.44;8315344;28;20037;-54
2022/09/26 12:46:36;;;;;;;4.22;0.90;;;;;;;14.76;88.54;99049.16;8308541;28;20076;-51
2022/09/26 12:51:04;;;;;;;5.00;1.20;;;;;;;14.24;96.47;99048.88;8315419;28;20038;-50
2022/09/26 12:55:44;;;;;;;10.65;1.75;;;;;;;13.94;99.07;99047.41;8306931;28;20042;-54
2022/09/26 13:09:17;;;;;;;9.27;2.03;;;;;;;13.92;100.00;99035.91;8387298;27;20349;-55
2022/09/26 13:13:50;;;;;;;5.20;1.45;;;;;;;13.91;100.00;99031.50;8378265;28;20079;-54
2022/09/26 13:17:57;;;;;;;5.37;1.23;;;;;;;13.85;100.00;99021.44;8377942;28;20409;-54
2022/09/26 13:22:11;;;;;;;3.45;1.40;;;;;;;13.85;100.00;99014.09;8377243;28;20037;-53
2022/09/26 13:26:32;;;;;;;3.40;1.10;;;;;;;13.85;100.00;99010.56;8382093;28;20032;-55
2022/09/26 13:30:37;;;;;;;3.05;1.30;;;;;;;13.77;100.00;99011.56;8379301;28;20387;-55
2022/09/26 13:34:46;;;;;;;3.45;1.10;;;;;;;13.74;100.00;99002.94;8381839;28;20136;-52
2022/09/26 14:00:48;;;;;;;3.17;1.00;;;;;;;13.66;100.00;98975.94;8304409;28;20511;-54
2022/09/26 14:04:51;;;;;;;3.38;1.48;;;;;;;13.57;100.00;98966.25;8280932;28;20038;-54
2022/09/26 14:09:28;;;;;;;5.18;1.25;;;;;;;13.54;100.00;98964.78;8284114;28;20042;-51
2022/09/26 14:13:35;;;;;;;2.38;1.15;;;;;;;13.45;100.00;98965.16;8276830;28;20061;-49
2022/09/26 14:17:48;;;;;;;8.02;1.63;;;;;;;13.41;100.00;98958.41;8277347;28;20399;-51
2022/09/26 14:22:04;;;;;;;3.67;1.40;;;;;;;13.45;100.00;98954.28;8230271;28;20058;-53
2022/09/26 14:26:26;;;;;;;2.38;1.10;;;;;;;13.44;100.00;98947.16;8275280;28;20034;-51
2022/09/26 14:30:29;;;;;;;5.80;1.20;;;;;;;13.51;100.00;98943.44;8286608;28;20038;-50
2022/09/26 14:34:40;;;;;;;3.17;1.08;;;;;;;13.49;100.00;98933.84;8298953;28;20037;-53
2022/09/26 14:38:46;;;;;;;3.95;1.17;;;;;;;13.47;100.00;98915.03;8309243;28;20034;-51
2022/09/26 14:42:57;;;;;;;1.65;0.95;;;;;;;13.52;100.00;98906.28;8280522;28;20442;-50
2022/09/26 14:47:03;;;;;;;1.92;1.30;;;;;;;13.58;100.00;98908.22;8284934;28;20034;-52
2022/09/26 14:51:23;;;;;;;2.63;1.00;;;;;;;13.61;100.00;98899.66;8280555;28;20125;-54
2022/09/26 14:55:25;;;;;;;4.53;1.30;;;;;;;13.72;100.00;98901.81;8303461;28;20088;-52
2022/09/26 15:04:03;;;;;;;3.45;1.42;;;;;;;13.85;100.00;98889.16;8317149;27;20405;-50
2022/09/26 15:08:22;;;;;;;1.52;1.10;;;;;;;13.73;100.00;98887.22;8311473;28;20034;-53
2022/09/26 15:12:38;;;;;;;2.97;0.98;;;;;;;13.65;100.00;98881.94;8312663;28;20041;-52
2022/09/26 15:16:44;;;;;;;3.00;1.40;;;;;;;13.61;100.00;98872.53;8312460;28;20029;-53
2022/09/26 15:20:53;;;;;;;1.63;0.80;;;;;;;13.57;100.00;98866.63;8311364;28;20517;-54
2022/09/26 15:25:05;;;;;;;2.33;0.95;;;;;;;13.49;100.00;98869.53;8310274;28;20067;-52
2022/09/26 15:29:07;;;;;;;2.63;1.30;;;;;;;13.52;100.00;98855.56;8307498;28;20254;-52
2022/09/26 15:33:16;;;;;;;1.33;0.77;;;;;;;13.62;100.00;98841.59;8312824;28;20049;-51
2022/09/26 15:37:21;;;;;;;1.95;0.70;;;;;;;13.67;100.00;98833.69;8312121;28;20084;-50
2022/09/26 15:50:22;;;;;;;1.52;0.98;;;;;;;13.72;99.65;98814.91;8293502;28;20764;-50
2022/09/26 15:54:28;;;;;;;3.45;1.00;;;;;;;13.72;97.88;98806.75;8247808;28;20050;-50
2022/09/26 15:58:44;;;;;;;2.42;1.55;;;;;;;13.73;98.93;98812.00;8256112;28;20161;-50
2022/09/26 16:02:46;;;;;;;12.30;8.65;;;;;;;13.74;97.16;98799.25;8270287;28;20142;-51
2022/09/26 16:07:13;;;;;;;4.28;1.52;;;;;;;13.82;94.97;98804.53;8265230;28;20078;-53
2022/09/26 16:11:14;;;;;;;3.67;0.82;;;;;;;13.94;92.35;98800.19;8270013;28;20582;-54
2022/09/26 16:15:18;;;;;;;5.70;2.92;;;;;;;13.99;92.14;98789.53;8268007;28;20531;-54
2022/09/26 16:19:34;;;;;;;3.78;1.25;;;;;;;14.00;91.95;98782.22;8261907;28;20149;-52
2022/09/26 16:23:44;;;;;;;1.70;0.90;;;;;;;14.06;90.05;98779.50;8259990;28;20034;-54
2022/09/26 16:27:48;;;;;;;2.72;1.33;;;;;;;14.11;89.98;98762.59;8260029;28;20049;-51
2022/09/26 16:31:49;;;;;;;2.45;2.10;;;;;;;14.07;91.44;98770.34;8248019;28;20125;-54
2022/09/26 16:35:50;;;;;;;2.28;1.65;;;;;;;14.04;89.94;98759.88;8261118;28;20346;-52
2022/09/26 16:39:58;;;;;;;4.03;2.25;;;;;;;14.01;91.50;98749.41;8274748;28;20030;-51
2022/09/26 16:44:05;;;;;;;6.47;2.85;;;;;;;13.96;92.63;98745.66;8242598;28;20511;-53
2022/09/26 16:48:42;;;;;;;6.00;1.17;;;;;;;13.77;95.03;98747.25;8259615;28;20085;-51
2022/09/26 16:52:44;;;;;;;2.30;1.40;;;;;;;13.57;98.19;98747.19;8260573;28;20044;-49
2022/09/26 16:56:48;;;;;;;3.25;1.65;;;;;;;13.51;98.62;98736.31;8247927;28;20496;-54
2022/09/26 17:01:52;;;;;;;1.17;0.98;;;;;;;13.47;98.60;98743.16;8251670;28;20039;-49
2022/09/26 17:05:17;;;;;;;4.15;1.20;;;;;;;13.45;98.81;98735.22;8254501;28;20034;-51
2022/09/26 17:09:21;;;;;;;2.00;1.05;;;;;;;13.42;99.02;98732.91;8237226;28;22516;-52
2022/09/26 17:13:25;;;;;;;1.83;0.95;;;;;;;13.36;100.00;98728.28;8232363;28;20484;-54
2022/09/26 17:17:25;;;;;;;2.35;1.05;;;;;;;13.30;100.00;98729.09;8238037;28;20121;-53
2022/09/26 17:21:27;;;;;;;2.67;1.13;;;;;;;13.33;100.00;98727.88;8224961;28;20046;-53
2022/09/26 17:25:29;;;;;;;1.98;0.80;;;;;;;13.28;100.00;98714.91;8229024;28;20046;-52
2022/09/26 17:29:34;;;;;;;3.20;1.00;;;;;;;13.20;100.00;98722.34;8234129;28;20077;-51
2022/09/26 17:33:38;;;;;;;;;;;;;;;13.20;100.00;98711.50;8224955;28;20035;-54
2022/09/26 17:37:38;;;;;;;8.70;1.20;;;;;;;13.15;100.00;98714.00;8223205;28;19914;-51
2022/09/26 17:41:39;;;;;;;1.85;0.85;;;;;;;13.16;100.00;98705.66;8232988;28;20041;-51
2022/09/26 17:45:45;;;;;;;1.30;0.90;;;;;;;13.13;100.00;98699.78;8228977;28;20053;-51
2022/09/26 17:49:51;;;;;;;2.90;1.15;;;;;;;13.16;100.00;98702.09;8230618;28;20113;-53
2022/09/26 17:53:51;;;;;;;2.30;0.90;;;;;;;13.17;100.00;98703.75;8235108;28;20035;-51
2022/09/26 17:57:52;;;;;;;1.42;0.93;;;;;;;13.15;100.00;98692.28;8226235;28;20169;-51
2022/09/26 18:02:00;;;;;;;0.93;0.82;;;;;;;13.18;100.00;98700.03;8223002;28;20495;-52
2022/09/26 18:06:01;;;;;;;1.20;0.70;;;;;;;13.22;100.00;98693.16;8222991;28;20114;-54
2022/09/26 18:10:05;;;;;;;1.30;0.50;;;;;;;13.25;100.00;98692.75;8232913;28;20038;-51
2022/09/26 18:14:13;;;;;;;0.60;0.60;;;;;;;13.24;100.00;98680.22;8253740;28;20489;-54
2022/09/26 18:18:16;;;;;;;1.95;1.08;;;;;;;13.27;100.00;98674.41;8226674;28;20039;-51
2022/09/26 18:22:18;;;;;;;3.08;2.10;;;;;;;13.29;100.00;98677.72;8245664;28;20415;-51
2022/09/26 18:26:41;;;;;;;2.67;1.20;;;;;;;13.28;100.00;98676.06;8236824;28;20039;-52
2022/09/26 18:30:46;;;;;;;3.13;2.10;;;;;;;13.21;100.00;98675.22;8232433;28;20453;-51
2022/09/26 18:34:47;;;;;;;2.15;1.65;;;;;;;13.20;100.00;98673.50;8226670;28;20031;-52
2022/09/26 18:38:48;;;;;;;3.15;1.30;;;;;;;13.17;100.00;98676.63;8225946;28;20117;-51
2022/09/26 18:42:49;;;;;;;2.08;1.67;;;;;;;13.15;100.00;98681.44;8232407;28;20077;-53
2022/09/26 18:46:49;;;;;;;3.30;2.47;;;;;;;13.16;100.00;98674.97;8227148;28;20072;-52
2022/09/26 18:50:50;;;;;;;1.23;0.90;;;;;;;13.22;100.00;98676.88;8221973;28;20043;-55
2022/09/26 18:58:22;;;;;;;0.50;0.50;;;;;;;13.23;100.00;98678.53;8222738;28;20126;-51
2022/09/26 18:59:12;;;;;;;0.40;0.35;;;;;;;13.30;100.00;98682.13;8224138;28;20058;-51
2022/09/26 19:03:13;;;;;;;0.55;0.50;;;;;;;13.31;100.00;98681.09;8229194;28;20038;-51
2022/09/26 19:07:15;;;;;;;0.75;0.60;;;;;;;13.29;100.00;98688.59;8234747;28;20042;-52
2022/09/26 19:11:18;;;;;;;0.65;0.40;;;;;;;13.26;100.00;98683.56;8244791;28;20059;-50
2022/09/26 19:15:19;;;;;;;0.93;0.55;;;;;;;13.25;100.00;98681.91;8221974;28;20093;-53
2022/09/26 19:19:20;;;;;;;2.80;1.30;;;;;;;13.21;100.00;98686.88;8221106;28;20046;-50
2022/09/26 19:23:21;;;;;;;0.80;0.40;;;;;;;13.18;100.00;98689.19;8224924;28;20031;-53
2022/09/26 19:31:42;;;;;;;4.00;1.15;;;;;;;13.11;100.00;98682.88;8356159;27;20407;-55
2022/09/26 19:35:43;;;;;;;2.42;1.25;;;;;;;12.98;100.00;98685.47;8314555;28;20037;-55
2022/09/26 19:39:44;;;;;;;4.22;1.90;;;;;;;12.85;100.00;98680.84;8311233;28;20419;-51
2022/09/26 19:43:44;;;;;;;10.43;3.80;;;;;;;12.78;100.00;98681.84;8309815;28;20052;-52
2022/09/26 19:47:48;;;;;;;4.15;2.00;;;;;;;12.76;100.00;98675.75;8308396;28;20368;-52
2022/09/26 19:51:49;;;;;;;3.63;2.20;;;;;;;12.77;100.00;98678.28;8313209;28;20463;-54
2022/09/26 19:55:49;;;;;;;6.07;2.10;;;;;;;12.73;100.00;98677.00;8314384;28;20115;-54
2022/09/26 19:59:50;;;;;;;6.63;1.90;;;;;;;12.72;100.00;98669.06;8375344;28;20043;-53
2022/09/26 20:03:50;;;;;;;9.25;3.35;;;;;;;12.72;100.00;98663.66;8380492;28;20051;-52
2022/09/26 20:07:51;;;;;;;13.63;2.83;;;;;;;12.70;100.00;98660.28;8379379;28;20040;-53
2022/09/26 20:11:52;;;;;;;12.18;2.63;;;;;;;12.73;100.00;98665.31;8378825;28;20049;-54
2022/09/26 20:15:53;;;;;;;8.45;2.33;;;;;;;12.66;100.00;98659.84;8378052;28;20045;-50
2022/09/26 20:19:54;;;;;;;9.05;2.08;;;;;;;12.68;100.00;98668.63;8376349;28;20549;-50
2022/09/26 20:23:57;;;;;;;13.23;2.63;;;;;;;12.69;100.00;98658.63;8378822;28;20124;-55
2022/09/26 20:27:58;;;;;;;9.00;2.38;;;;;;;12.66;100.00;98659.03;8377939;28;20043;-53
2022/09/26 20:31:59;;;;;;;10.48;2.42;;;;;;;12.65;100.00;98651.91;8353552;28;20505;-55
2022/09/26 20:36:03;;;;;;;12.90;2.35;;;;;;;12.66;100.00;98653.59;8361927;28;20028;-53
2022/09/26 20:40:12;;;;;;;15.70;3.10;;;;;;;12.69;100.00;98658.63;8374590;28;20364;-55
2022/09/26 20:44:18;;;;;;;9.95;2.58;;;;;;;12.69;100.00;98647.78;8356267;28;20041;-51
2022/09/26 20:48:23;;;;;;;10.25;3.65;;;;;;;12.67;100.00;98657.97;8360376;28;20045;-55
2022/09/26 20:52:25;;;;;;;15.88;5.20;;;;;;;12.68;100.00;98646.09;8362017;28;20037;-54
2022/09/26 20:56:26;;;;;;;13.07;4.93;;;;;;;12.67;100.00;98650.69;8360429;28;20044;-53
2022/09/26 21:00:27;;;;;;;11.63;5.30;;;;;;;12.67;100.00;98649.84;8386389;28;20040;-53